sensor_id;sensor_type;location;lat;lon;timestamp;P1;durP1;ratioP1;P2;durP2;ratioP2
1400;SDS011;46518;48.842;8.926;2023-03-16T00:01:01;16.60;;;13.90;;
1400;SDS011;46518;48.842;8.926;2023-03-16T00:03:30;17.00;;;13.27;;
1400;SDS011;46518;48.842;8.926;2023-03-16T00:05:59;13.48;;;10.50;;
1400;SDS011;46518;48.842;8.926;2023-03-16T00:08:27;17.40;;;12.65;;
1400;SDS011;46518;48.842;8.926;2023-03-16T00:10:55;15.88;;;11.68;;
1400;SDS011;46518;48.842;8.926;2023-03-16T00:13:25;14.80;;;11.45;;
1400;SDS011;46518;48.842;8.926;2023-03-16T00:15:53;12.80;;;11.38;;
1400;SDS011;46518;48.842;8.926;2023-03-16T00:18:23;18.17;;;12.85;;
1400;SDS011;46518;48.842;8.926;2023-03-16T00:20:54;14.05;;;11.10;;
1400;SDS011;46518;48.842;8.926;2023-03-16T00:23:24;16.35;;;11.98;;
1400;SDS011;46518;48.842;8.926;2023-03-16T00:25:53;15.10;;;11.02;;
1400;SDS011;46518;48.842;8.926;2023-03-16T00:28:22;11.18;;;9.50;;
1400;SDS011;46518;48.842;8.926;2023-03-16T00:30:52;17.48;;;11.90;;
1400;SDS011;46518;48.842;8.926;2023-03-16T00:33:24;12.50;;;10.70;;
1400;SDS011;46518;48.842;8.926;2023-03-16T00:35:52;17.83;;;12.60;;
1400;SDS011;46518;48.842;8.926;2023-03-16T00:38:30;14.13;;;11.23;;
1400;SDS011;46518;48.842;8.926;2023-03-16T00:41:00;14.77;;;12.73;;
1400;SDS011;46518;48.842;8.926;2023-03-16T00:43:29;12.23;;;10.88;;
1400;SDS011;46518;48.842;8.926;2023-03-16T00:45:59;15.63;;;12.52;;
1400;SDS011;46518;48.842;8.926;2023-03-16T00:48:32;14.75;;;11.60;;
1400;SDS011;46518;48.842;8.926;2023-03-16T00:51:01;13.60;;;10.40;;
1400;SDS011;46518;48.842;8.926;2023-03-16T00:53:30;15.30;;;11.98;;
1400;SDS011;46518;48.842;8.926;2023-03-16T00:55:59;13.38;;;10.82;;
1400;SDS011;46518;48.842;8.926;2023-03-16T00:58:30;14.02;;;11.00;;
1400;SDS011;46518;48.842;8.926;2023-03-16T01:01:03;15.73;;;11.13;;
1400;SDS011;46518;48.842;8.926;2023-03-16T01:03:33;15.95;;;11.02;;
1400;SDS011;46518;48.842;8.926;2023-03-16T01:06:02;14.85;;;11.25;;
1400;SDS011;46518;48.842;8.926;2023-03-16T01:08:31;13.95;;;11.35;;
1400;SDS011;46518;48.842;8.926;2023-03-16T01:11:03;15.48;;;11.40;;
1400;SDS011;46518;48.842;8.926;2023-03-16T01:13:31;12.15;;;10.30;;
1400;SDS011;46518;48.842;8.926;2023-03-16T01:16:00;13.55;;;11.27;;
1400;SDS011;46518;48.842;8.926;2023-03-16T01:18:31;13.15;;;10.93;;
1400;SDS011;46518;48.842;8.926;2023-03-16T01:21:00;14.45;;;11.95;;
1400;SDS011;46518;48.842;8.926;2023-03-16T01:23:31;13.52;;;11.43;;
1400;SDS011;46518;48.842;8.926;2023-03-16T01:26:00;19.02;;;13.90;;
1400;SDS011;46518;48.842;8.926;2023-03-16T01:28:29;15.98;;;13.95;;
1400;SDS011;46518;48.842;8.926;2023-03-16T01:31:00;20.02;;;15.80;;
1400;SDS011;46518;48.842;8.926;2023-03-16T01:33:33;20.50;;;16.20;;
1400;SDS011;46518;48.842;8.926;2023-03-16T01:36:04;17.00;;;14.48;;
1400;SDS011;46518;48.842;8.926;2023-03-16T01:38:53;15.13;;;13.05;;
1400;SDS011;46518;48.842;8.926;2023-03-16T01:41:24;18.88;;;14.60;;
1400;SDS011;46518;48.842;8.926;2023-03-16T01:43:53;18.38;;;15.15;;
1400;SDS011;46518;48.842;8.926;2023-03-16T01:46:25;16.80;;;13.48;;
1400;SDS011;46518;48.842;8.926;2023-03-16T01:48:57;15.27;;;12.68;;
1400;SDS011;46518;48.842;8.926;2023-03-16T01:51:37;13.65;;;11.20;;
1400;SDS011;46518;48.842;8.926;2023-03-16T01:54:14;15.05;;;12.27;;
1400;SDS011;46518;48.842;8.926;2023-03-16T01:56:51;13.23;;;11.52;;
1400;SDS011;46518;48.842;8.926;2023-03-16T01:59:25;12.82;;;11.43;;
1400;SDS011;46518;48.842;8.926;2023-03-16T02:01:57;14.60;;;10.98;;
1400;SDS011;46518;48.842;8.926;2023-03-16T02:04:33;16.85;;;11.60;;
1400;SDS011;46518;48.842;8.926;2023-03-16T02:07:10;14.13;;;11.60;;
1400;SDS011;46518;48.842;8.926;2023-03-16T02:09:44;15.43;;;12.48;;
1400;SDS011;46518;48.842;8.926;2023-03-16T02:12:15;19.17;;;12.95;;
1400;SDS011;46518;48.842;8.926;2023-03-16T02:14:50;14.45;;;12.07;;
1400;SDS011;46518;48.842;8.926;2023-03-16T02:17:20;17.08;;;13.85;;
1400;SDS011;46518;48.842;8.926;2023-03-16T02:19:57;19.60;;;15.00;;
1400;SDS011;46518;48.842;8.926;2023-03-16T02:22:36;24.88;;;19.35;;
1400;SDS011;46518;48.842;8.926;2023-03-16T02:25:08;30.92;;;20.77;;
1400;SDS011;46518;48.842;8.926;2023-03-16T02:27:38;31.63;;;22.60;;
1400;SDS011;46518;48.842;8.926;2023-03-16T02:30:15;30.80;;;21.63;;
1400;SDS011;46518;48.842;8.926;2023-03-16T02:33:01;26.02;;;19.23;;
1400;SDS011;46518;48.842;8.926;2023-03-16T02:35:30;28.02;;;19.27;;
1400;SDS011;46518;48.842;8.926;2023-03-16T02:38:01;24.05;;;17.23;;
1400;SDS011;46518;48.842;8.926;2023-03-16T02:40:34;23.73;;;17.60;;
1400;SDS011;46518;48.842;8.926;2023-03-16T02:43:08;23.02;;;15.95;;
1400;SDS011;46518;48.842;8.926;2023-03-16T02:45:48;23.10;;;15.73;;
1400;SDS011;46518;48.842;8.926;2023-03-16T02:48:21;22.58;;;14.45;;
1400;SDS011;46518;48.842;8.926;2023-03-16T02:50:54;21.83;;;14.32;;
1400;SDS011;46518;48.842;8.926;2023-03-16T02:53:23;21.80;;;15.00;;
1400;SDS011;46518;48.842;8.926;2023-03-16T02:55:51;19.77;;;15.45;;
1400;SDS011;46518;48.842;8.926;2023-03-16T02:58:20;18.98;;;14.60;;
1400;SDS011;46518;48.842;8.926;2023-03-16T03:00:49;19.70;;;13.55;;
1400;SDS011;46518;48.842;8.926;2023-03-16T03:03:17;24.98;;;14.25;;
1400;SDS011;46518;48.842;8.926;2023-03-16T03:05:45;16.52;;;13.25;;
1400;SDS011;46518;48.842;8.926;2023-03-16T03:08:14;20.38;;;15.45;;
1400;SDS011;46518;48.842;8.926;2023-03-16T03:10:42;22.23;;;15.68;;
1400;SDS011;46518;48.842;8.926;2023-03-16T03:13:10;23.05;;;17.50;;
1400;SDS011;46518;48.842;8.926;2023-03-16T03:15:39;25.27;;;17.20;;
1400;SDS011;46518;48.842;8.926;2023-03-16T03:18:11;26.25;;;18.48;;
1400;SDS011;46518;48.842;8.926;2023-03-16T03:20:40;25.23;;;17.40;;
1400;SDS011;46518;48.842;8.926;2023-03-16T03:23:08;25.02;;;17.92;;
1400;SDS011;46518;48.842;8.926;2023-03-16T03:25:37;26.15;;;17.42;;
1400;SDS011;46518;48.842;8.926;2023-03-16T03:28:05;26.20;;;19.90;;
1400;SDS011;46518;48.842;8.926;2023-03-16T03:30:34;30.35;;;19.95;;
1400;SDS011;46518;48.842;8.926;2023-03-16T03:33:03;27.58;;;20.15;;
1400;SDS011;46518;48.842;8.926;2023-03-16T03:35:33;29.70;;;20.48;;
1400;SDS011;46518;48.842;8.926;2023-03-16T03:38:01;25.67;;;19.85;;
1400;SDS011;46518;48.842;8.926;2023-03-16T03:40:29;26.50;;;19.50;;
1400;SDS011;46518;48.842;8.926;2023-03-16T03:43:01;28.50;;;19.65;;
1400;SDS011;46518;48.842;8.926;2023-03-16T03:45:31;35.78;;;21.02;;
1400;SDS011;46518;48.842;8.926;2023-03-16T03:48:00;30.88;;;19.67;;
1400;SDS011;46518;48.842;8.926;2023-03-16T03:50:28;31.52;;;23.13;;
1400;SDS011;46518;48.842;8.926;2023-03-16T03:53:09;27.80;;;20.58;;
1400;SDS011;46518;48.842;8.926;2023-03-16T03:55:57;24.58;;;17.98;;
1400;SDS011;46518;48.842;8.926;2023-03-16T03:58:25;28.55;;;19.65;;
1400;SDS011;46518;48.842;8.926;2023-03-16T04:00:53;20.85;;;15.18;;
1400;SDS011;46518;48.842;8.926;2023-03-16T04:03:21;24.33;;;16.73;;
1400;SDS011;46518;48.842;8.926;2023-03-16T04:05:49;21.90;;;15.05;;
1400;SDS011;46518;48.842;8.926;2023-03-16T04:08:19;20.50;;;15.90;;
1400;SDS011;46518;48.842;8.926;2023-03-16T04:10:47;25.88;;;17.35;;
1400;SDS011;46518;48.842;8.926;2023-03-16T04:13:15;19.67;;;14.40;;
1400;SDS011;46518;48.842;8.926;2023-03-16T04:15:43;22.65;;;14.60;;
1400;SDS011;46518;48.842;8.926;2023-03-16T04:18:17;19.67;;;13.95;;
1400;SDS011;46518;48.842;8.926;2023-03-16T04:20:46;18.85;;;13.68;;
1400;SDS011;46518;48.842;8.926;2023-03-16T04:23:20;20.35;;;14.80;;
1400;SDS011;46518;48.842;8.926;2023-03-16T04:25:51;20.75;;;15.40;;
1400;SDS011;46518;48.842;8.926;2023-03-16T04:28:21;17.48;;;13.77;;
1400;SDS011;46518;48.842;8.926;2023-03-16T04:30:52;19.70;;;14.23;;
1400;SDS011;46518;48.842;8.926;2023-03-16T04:33:27;22.48;;;15.18;;
1400;SDS011;46518;48.842;8.926;2023-03-16T04:35:55;18.02;;;14.43;;
1400;SDS011;46518;48.842;8.926;2023-03-16T04:38:25;14.50;;;11.75;;
1400;SDS011;46518;48.842;8.926;2023-03-16T04:40:57;15.65;;;12.77;;
1400;SDS011;46518;48.842;8.926;2023-03-16T04:43:31;16.08;;;13.25;;
1400;SDS011;46518;48.842;8.926;2023-03-16T04:46:06;17.38;;;14.18;;
1400;SDS011;46518;48.842;8.926;2023-03-16T04:48:34;19.23;;;13.75;;
1400;SDS011;46518;48.842;8.926;2023-03-16T04:51:04;16.48;;;12.98;;
1400;SDS011;46518;48.842;8.926;2023-03-16T04:53:38;14.65;;;12.60;;
1400;SDS011;46518;48.842;8.926;2023-03-16T04:56:14;15.25;;;12.45;;
1400;SDS011;46518;48.842;8.926;2023-03-16T04:58:49;18.60;;;14.63;;
1400;SDS011;46518;48.842;8.926;2023-03-16T05:01:19;18.35;;;12.55;;
1400;SDS011;46518;48.842;8.926;2023-03-16T05:03:52;14.80;;;11.80;;
1400;SDS011;46518;48.842;8.926;2023-03-16T05:06:20;15.88;;;12.82;;
1400;SDS011;46518;48.842;8.926;2023-03-16T05:08:49;15.82;;;11.98;;
1400;SDS011;46518;48.842;8.926;2023-03-16T05:11:18;13.93;;;12.40;;
1400;SDS011;46518;48.842;8.926;2023-03-16T05:13:53;16.90;;;12.05;;
1400;SDS011;46518;48.842;8.926;2023-03-16T05:16:23;16.40;;;12.98;;
1400;SDS011;46518;48.842;8.926;2023-03-16T05:18:52;16.65;;;12.95;;
1400;SDS011;46518;48.842;8.926;2023-03-16T05:21:20;15.98;;;13.10;;
1400;SDS011;46518;48.842;8.926;2023-03-16T05:24:02;17.20;;;14.35;;
1400;SDS011;46518;48.842;8.926;2023-03-16T05:26:31;23.70;;;15.15;;
1400;SDS011;46518;48.842;8.926;2023-03-16T05:28:59;19.83;;;14.77;;
1400;SDS011;46518;48.842;8.926;2023-03-16T05:31:29;26.77;;;16.92;;
1400;SDS011;46518;48.842;8.926;2023-03-16T05:34:01;20.55;;;14.68;;
1400;SDS011;46518;48.842;8.926;2023-03-16T05:36:29;17.40;;;13.27;;
1400;SDS011;46518;48.842;8.926;2023-03-16T05:39:06;16.45;;;12.77;;
1400;SDS011;46518;48.842;8.926;2023-03-16T05:41:39;17.73;;;13.30;;
1400;SDS011;46518;48.842;8.926;2023-03-16T05:44:15;17.95;;;14.15;;
1400;SDS011;46518;48.842;8.926;2023-03-16T05:47:03;19.15;;;13.40;;
1400;SDS011;46518;48.842;8.926;2023-03-16T05:49:35;18.20;;;12.80;;
1400;SDS011;46518;48.842;8.926;2023-03-16T05:52:08;21.40;;;15.40;;
1400;SDS011;46518;48.842;8.926;2023-03-16T05:54:39;28.17;;;22.02;;
1400;SDS011;46518;48.842;8.926;2023-03-16T05:57:09;21.17;;;14.98;;
1400;SDS011;46518;48.842;8.926;2023-03-16T05:59:39;22.80;;;17.25;;
1400;SDS011;46518;48.842;8.926;2023-03-16T06:02:10;19.98;;;14.90;;
1400;SDS011;46518;48.842;8.926;2023-03-16T06:04:38;19.73;;;14.57;;
1400;SDS011;46518;48.842;8.926;2023-03-16T06:07:07;20.85;;;13.55;;
1400;SDS011;46518;48.842;8.926;2023-03-16T06:09:35;16.65;;;13.15;;
1400;SDS011;46518;48.842;8.926;2023-03-16T06:12:11;20.90;;;15.60;;
1400;SDS011;46518;48.842;8.926;2023-03-16T06:14:40;21.45;;;15.40;;
1400;SDS011;46518;48.842;8.926;2023-03-16T06:17:09;17.60;;;13.82;;
1400;SDS011;46518;48.842;8.926;2023-03-16T06:19:38;19.33;;;13.57;;
1400;SDS011;46518;48.842;8.926;2023-03-16T06:22:07;13.48;;;12.13;;
1400;SDS011;46518;48.842;8.926;2023-03-16T06:24:36;17.95;;;14.57;;
1400;SDS011;46518;48.842;8.926;2023-03-16T06:27:05;19.55;;;13.60;;
1400;SDS011;46518;48.842;8.926;2023-03-16T06:29:46;19.58;;;14.30;;
1400;SDS011;46518;48.842;8.926;2023-03-16T06:32:14;18.08;;;13.90;;
1400;SDS011;46518;48.842;8.926;2023-03-16T06:34:42;18.83;;;12.93;;
1400;SDS011;46518;48.842;8.926;2023-03-16T06:37:11;17.50;;;14.13;;
1400;SDS011;46518;48.842;8.926;2023-03-16T06:39:39;17.08;;;12.93;;
1400;SDS011;46518;48.842;8.926;2023-03-16T06:42:07;18.48;;;14.35;;
1400;SDS011;46518;48.842;8.926;2023-03-16T06:44:36;26.42;;;17.00;;
1400;SDS011;46518;48.842;8.926;2023-03-16T06:47:09;24.10;;;16.95;;
1400;SDS011;46518;48.842;8.926;2023-03-16T06:49:37;20.38;;;15.75;;
1400;SDS011;46518;48.842;8.926;2023-03-16T06:52:13;25.23;;;18.02;;
1400;SDS011;46518;48.842;8.926;2023-03-16T06:54:41;24.98;;;18.73;;
1400;SDS011;46518;48.842;8.926;2023-03-16T06:57:10;26.92;;;18.05;;
1400;SDS011;46518;48.842;8.926;2023-03-16T06:59:39;28.50;;;18.30;;
1400;SDS011;46518;48.842;8.926;2023-03-16T07:02:09;23.20;;;16.55;;
1400;SDS011;46518;48.842;8.926;2023-03-16T07:04:40;28.58;;;18.70;;
1400;SDS011;46518;48.842;8.926;2023-03-16T07:07:09;26.45;;;17.23;;
1400;SDS011;46518;48.842;8.926;2023-03-16T07:09:37;25.85;;;17.80;;
1400;SDS011;46518;48.842;8.926;2023-03-16T07:12:08;24.92;;;18.33;;
1400;SDS011;46518;48.842;8.926;2023-03-16T07:14:39;27.80;;;18.75;;
1400;SDS011;46518;48.842;8.926;2023-03-16T07:17:11;30.10;;;18.70;;
1400;SDS011;46518;48.842;8.926;2023-03-16T07:19:39;24.88;;;18.92;;
1400;SDS011;46518;48.842;8.926;2023-03-16T07:22:08;23.95;;;18.33;;
1400;SDS011;46518;48.842;8.926;2023-03-16T07:24:38;26.25;;;18.23;;
1400;SDS011;46518;48.842;8.926;2023-03-16T07:27:07;20.90;;;15.43;;
1400;SDS011;46518;48.842;8.926;2023-03-16T07:29:38;22.27;;;15.50;;
1400;SDS011;46518;48.842;8.926;2023-03-16T07:32:08;23.35;;;16.92;;
1400;SDS011;46518;48.842;8.926;2023-03-16T07:34:39;27.40;;;17.00;;
1400;SDS011;46518;48.842;8.926;2023-03-16T07:37:08;23.23;;;16.30;;
1400;SDS011;46518;48.842;8.926;2023-03-16T07:39:37;20.98;;;15.65;;
1400;SDS011;46518;48.842;8.926;2023-03-16T07:42:11;22.25;;;16.65;;
1400;SDS011;46518;48.842;8.926;2023-03-16T07:44:51;21.67;;;16.20;;
1400;SDS011;46518;48.842;8.926;2023-03-16T07:47:19;22.67;;;16.33;;
1400;SDS011;46518;48.842;8.926;2023-03-16T07:49:58;18.88;;;13.23;;
1400;SDS011;46518;48.842;8.926;2023-03-16T07:52:27;18.30;;;13.07;;
1400;SDS011;46518;48.842;8.926;2023-03-16T07:54:56;18.85;;;12.40;;
1400;SDS011;46518;48.842;8.926;2023-03-16T07:57:24;14.70;;;11.18;;
1400;SDS011;46518;48.842;8.926;2023-03-16T07:59:53;16.42;;;11.50;;
1400;SDS011;46518;48.842;8.926;2023-03-16T08:02:21;18.05;;;12.57;;
1400;SDS011;46518;48.842;8.926;2023-03-16T08:04:50;14.23;;;11.68;;
1400;SDS011;46518;48.842;8.926;2023-03-16T08:07:20;13.73;;;10.70;;
1400;SDS011;46518;48.842;8.926;2023-03-16T08:09:57;15.05;;;11.90;;
1400;SDS011;46518;48.842;8.926;2023-03-16T08:12:31;13.55;;;11.52;;
1400;SDS011;46518;48.842;8.926;2023-03-16T08:15:00;16.52;;;13.50;;
1400;SDS011;46518;48.842;8.926;2023-03-16T08:17:30;15.95;;;13.27;;
1400;SDS011;46518;48.842;8.926;2023-03-16T08:20:02;15.82;;;11.77;;
1400;SDS011;46518;48.842;8.926;2023-03-16T08:22:37;17.60;;;13.40;;
1400;SDS011;46518;48.842;8.926;2023-03-16T08:25:05;19.98;;;13.60;;
1400;SDS011;46518;48.842;8.926;2023-03-16T08:27:38;16.15;;;13.23;;
1400;SDS011;46518;48.842;8.926;2023-03-16T08:30:08;17.15;;;13.27;;
1400;SDS011;46518;48.842;8.926;2023-03-16T08:32:41;20.15;;;13.05;;
1400;SDS011;46518;48.842;8.926;2023-03-16T08:35:11;18.35;;;11.15;;
1400;SDS011;46518;48.842;8.926;2023-03-16T08:37:42;19.05;;;12.98;;
1400;SDS011;46518;48.842;8.926;2023-03-16T08:40:12;18.85;;;11.98;;
1400;SDS011;46518;48.842;8.926;2023-03-16T08:42:42;17.55;;;11.57;;
1400;SDS011;46518;48.842;8.926;2023-03-16T08:45:11;12.82;;;10.05;;
1400;SDS011;46518;48.842;8.926;2023-03-16T08:47:42;16.20;;;12.52;;
1400;SDS011;46518;48.842;8.926;2023-03-16T08:50:12;18.13;;;13.27;;
1400;SDS011;46518;48.842;8.926;2023-03-16T08:52:42;15.02;;;11.70;;
1400;SDS011;46518;48.842;8.926;2023-03-16T08:55:11;14.65;;;12.63;;
1400;SDS011;46518;48.842;8.926;2023-03-16T08:57:39;16.60;;;12.45;;
1400;SDS011;46518;48.842;8.926;2023-03-16T09:00:11;24.95;;;12.90;;
1400;SDS011;46518;48.842;8.926;2023-03-16T09:02:41;13.63;;;11.00;;
1400;SDS011;46518;48.842;8.926;2023-03-16T09:05:10;15.18;;;11.75;;
1400;SDS011;46518;48.842;8.926;2023-03-16T09:07:40;14.93;;;10.75;;
1400;SDS011;46518;48.842;8.926;2023-03-16T09:10:14;10.50;;;8.60;;
1400;SDS011;46518;48.842;8.926;2023-03-16T09:12:42;13.15;;;10.30;;
1400;SDS011;46518;48.842;8.926;2023-03-16T09:15:11;11.40;;;8.35;;
1400;SDS011;46518;48.842;8.926;2023-03-16T09:17:40;16.13;;;11.90;;
1400;SDS011;46518;48.842;8.926;2023-03-16T09:20:11;11.68;;;10.30;;
1400;SDS011;46518;48.842;8.926;2023-03-16T09:23:02;11.05;;;9.00;;
1400;SDS011;46518;48.842;8.926;2023-03-16T09:25:30;15.45;;;11.13;;
1400;SDS011;46518;48.842;8.926;2023-03-16T09:27:59;12.60;;;9.55;;
1400;SDS011;46518;48.842;8.926;2023-03-16T09:30:27;11.98;;;9.20;;
1400;SDS011;46518;48.842;8.926;2023-03-16T09:32:55;11.25;;;9.60;;
1400;SDS011;46518;48.842;8.926;2023-03-16T09:35:24;11.45;;;8.15;;
1400;SDS011;46518;48.842;8.926;2023-03-16T09:37:52;10.85;;;8.77;;
1400;SDS011;46518;48.842;8.926;2023-03-16T09:40:33;8.82;;;7.80;;
1400;SDS011;46518;48.842;8.926;2023-03-16T09:43:14;10.07;;;7.30;;
1400;SDS011;46518;48.842;8.926;2023-03-16T09:45:53;10.43;;;7.60;;
1400;SDS011;46518;48.842;8.926;2023-03-16T09:48:27;12.55;;;9.13;;
1400;SDS011;46518;48.842;8.926;2023-03-16T09:50:58;8.98;;;6.57;;
1400;SDS011;46518;48.842;8.926;2023-03-16T09:53:29;11.80;;;6.07;;
1400;SDS011;46518;48.842;8.926;2023-03-16T09:56:02;5.90;;;5.30;;
1400;SDS011;46518;48.842;8.926;2023-03-16T09:58:32;9.75;;;5.78;;
1400;SDS011;46518;48.842;8.926;2023-03-16T10:01:05;9.07;;;4.60;;
1400;SDS011;46518;48.842;8.926;2023-03-16T10:03:45;5.57;;;4.72;;
1400;SDS011;46518;48.842;8.926;2023-03-16T10:06:32;6.03;;;4.78;;
1400;SDS011;46518;48.842;8.926;2023-03-16T10:09:12;7.22;;;4.38;;
1400;SDS011;46518;48.842;8.926;2023-03-16T10:11:51;7.88;;;5.82;;
1400;SDS011;46518;48.842;8.926;2023-03-16T10:14:22;6.38;;;5.78;;
1400;SDS011;46518;48.842;8.926;2023-03-16T10:16:57;6.32;;;5.72;;
1400;SDS011;46518;48.842;8.926;2023-03-16T10:19:33;6.57;;;4.75;;
1400;SDS011;46518;48.842;8.926;2023-03-16T10:22:10;5.60;;;5.03;;
1400;SDS011;46518;48.842;8.926;2023-03-16T10:24:47;6.35;;;4.97;;
1400;SDS011;46518;48.842;8.926;2023-03-16T10:27:27;5.30;;;4.80;;
1400;SDS011;46518;48.842;8.926;2023-03-16T10:29:57;8.75;;;5.05;;
1400;SDS011;46518;48.842;8.926;2023-03-16T10:32:29;5.78;;;4.70;;
1400;SDS011;46518;48.842;8.926;2023-03-16T10:35:01;6.20;;;4.97;;
1400;SDS011;46518;48.842;8.926;2023-03-16T10:37:33;6.07;;;4.32;;
1400;SDS011;46518;48.842;8.926;2023-03-16T10:40:05;5.07;;;4.55;;
1400;SDS011;46518;48.842;8.926;2023-03-16T10:42:39;4.90;;;3.90;;
1400;SDS011;46518;48.842;8.926;2023-03-16T10:45:11;6.53;;;4.75;;
1400;SDS011;46518;48.842;8.926;2023-03-16T10:47:49;4.55;;;3.75;;
1400;SDS011;46518;48.842;8.926;2023-03-16T10:50:21;4.32;;;3.80;;
1400;SDS011;46518;48.842;8.926;2023-03-16T10:52:53;4.88;;;3.78;;
1400;SDS011;46518;48.842;8.926;2023-03-16T10:55:25;6.72;;;4.03;;
1400;SDS011;46518;48.842;8.926;2023-03-16T10:57:57;4.68;;;4.03;;
1400;SDS011;46518;48.842;8.926;2023-03-16T11:00:28;4.35;;;3.95;;
1400;SDS011;46518;48.842;8.926;2023-03-16T11:02:57;4.60;;;3.85;;
1400;SDS011;46518;48.842;8.926;2023-03-16T11:05:28;5.97;;;4.53;;
1400;SDS011;46518;48.842;8.926;2023-03-16T11:07:58;3.97;;;3.58;;
1400;SDS011;46518;48.842;8.926;2023-03-16T11:10:31;5.35;;;4.20;;
1400;SDS011;46518;48.842;8.926;2023-03-16T11:13:13;4.88;;;4.43;;
1400;SDS011;46518;48.842;8.926;2023-03-16T11:15:46;3.65;;;3.08;;
1400;SDS011;46518;48.842;8.926;2023-03-16T11:18:21;5.15;;;3.75;;
1400;SDS011;46518;48.842;8.926;2023-03-16T11:20:56;4.15;;;3.75;;
1400;SDS011;46518;48.842;8.926;2023-03-16T11:23:29;4.30;;;3.90;;
1400;SDS011;46518;48.842;8.926;2023-03-16T11:26:01;3.13;;;2.83;;
1400;SDS011;46518;48.842;8.926;2023-03-16T11:28:35;3.45;;;2.83;;
1400;SDS011;46518;48.842;8.926;2023-03-16T11:31:07;3.60;;;2.70;;
1400;SDS011;46518;48.842;8.926;2023-03-16T11:33:45;4.25;;;2.70;;
1400;SDS011;46518;48.842;8.926;2023-03-16T11:36:17;4.93;;;2.72;;
1400;SDS011;46518;48.842;8.926;2023-03-16T11:39:02;3.25;;;2.33;;
1400;SDS011;46518;48.842;8.926;2023-03-16T11:41:40;5.50;;;3.60;;
1400;SDS011;46518;48.842;8.926;2023-03-16T11:44:19;4.03;;;3.15;;
1400;SDS011;46518;48.842;8.926;2023-03-16T11:46:52;2.50;;;2.30;;
1400;SDS011;46518;48.842;8.926;2023-03-16T11:49:30;2.50;;;2.22;;
1400;SDS011;46518;48.842;8.926;2023-03-16T11:52:11;4.00;;;3.60;;
1400;SDS011;46518;48.842;8.926;2023-03-16T11:54:52;3.10;;;2.83;;
1400;SDS011;46518;48.842;8.926;2023-03-16T11:57:29;4.65;;;3.13;;
1400;SDS011;46518;48.842;8.926;2023-03-16T12:00:15;2.67;;;2.45;;
1400;SDS011;46518;48.842;8.926;2023-03-16T12:02:59;3.78;;;2.67;;
1400;SDS011;46518;48.842;8.926;2023-03-16T12:05:45;3.20;;;2.90;;
1400;SDS011;46518;48.842;8.926;2023-03-16T12:08:24;2.60;;;2.30;;
1400;SDS011;46518;48.842;8.926;2023-03-16T12:11:08;3.53;;;2.58;;
1400;SDS011;46518;48.842;8.926;2023-03-16T12:13:45;2.90;;;2.30;;
1400;SDS011;46518;48.842;8.926;2023-03-16T12:16:29;3.08;;;2.58;;
1400;SDS011;46518;48.842;8.926;2023-03-16T12:19:15;3.42;;;3.13;;
1400;SDS011;46518;48.842;8.926;2023-03-16T12:21:51;3.08;;;2.22;;
1400;SDS011;46518;48.842;8.926;2023-03-16T12:24:28;3.58;;;2.90;;
1400;SDS011;46518;48.842;8.926;2023-03-16T12:27:01;3.13;;;2.83;;
1400;SDS011;46518;48.842;8.926;2023-03-16T12:29:31;3.25;;;2.95;;
1400;SDS011;46518;48.842;8.926;2023-03-16T12:32:09;2.63;;;2.30;;
1400;SDS011;46518;48.842;8.926;2023-03-16T12:34:43;2.60;;;2.35;;
1400;SDS011;46518;48.842;8.926;2023-03-16T12:37:18;2.28;;;2.08;;
1400;SDS011;46518;48.842;8.926;2023-03-16T12:39:58;2.45;;;2.00;;
1400;SDS011;46518;48.842;8.926;2023-03-16T12:45:32;3.00;;;2.78;;
1400;SDS011;46518;48.842;8.926;2023-03-16T12:48:10;3.60;;;2.55;;
1400;SDS011;46518;48.842;8.926;2023-03-16T12:50:48;2.63;;;1.90;;
1400;SDS011;46518;48.842;8.926;2023-03-16T12:53:28;4.75;;;3.03;;
1400;SDS011;46518;48.842;8.926;2023-03-16T12:56:08;3.53;;;2.85;;
1400;SDS011;46518;48.842;8.926;2023-03-16T12:58:39;3.58;;;2.60;;
1400;SDS011;46518;48.842;8.926;2023-03-16T13:01:11;3.97;;;3.10;;
1400;SDS011;46518;48.842;8.926;2023-03-16T13:03:42;4.05;;;3.00;;
1400;SDS011;46518;48.842;8.926;2023-03-16T13:06:18;2.47;;;2.28;;
1400;SDS011;46518;48.842;8.926;2023-03-16T13:08:50;2.95;;;2.38;;
1400;SDS011;46518;48.842;8.926;2023-03-16T13:11:22;3.80;;;3.05;;
1400;SDS011;46518;48.842;8.926;2023-03-16T13:13:51;2.50;;;2.30;;
1400;SDS011;46518;48.842;8.926;2023-03-16T13:16:33;2.97;;;2.60;;
1400;SDS011;46518;48.842;8.926;2023-03-16T13:19:20;5.10;;;2.95;;
1400;SDS011;46518;48.842;8.926;2023-03-16T13:22:02;3.15;;;2.30;;
1400;SDS011;46518;48.842;8.926;2023-03-16T13:24:36;3.72;;;3.35;;
1400;SDS011;46518;48.842;8.926;2023-03-16T13:27:12;5.75;;;3.13;;
1400;SDS011;46518;48.842;8.926;2023-03-16T13:29:51;3.00;;;2.72;;
1400;SDS011;46518;48.842;8.926;2023-03-16T13:32:21;4.28;;;2.92;;
1400;SDS011;46518;48.842;8.926;2023-03-16T13:34:52;2.50;;;2.00;;
1400;SDS011;46518;48.842;8.926;2023-03-16T13:37:26;3.90;;;2.78;;
1400;SDS011;46518;48.842;8.926;2023-03-16T13:39:56;3.17;;;2.78;;
1400;SDS011;46518;48.842;8.926;2023-03-16T13:42:28;2.53;;;2.13;;
1400;SDS011;46518;48.842;8.926;2023-03-16T13:44:58;4.85;;;3.33;;
1400;SDS011;46518;48.842;8.926;2023-03-16T13:47:34;3.13;;;2.90;;
1400;SDS011;46518;48.842;8.926;2023-03-16T13:50:04;3.72;;;2.60;;
1400;SDS011;46518;48.842;8.926;2023-03-16T13:52:33;3.60;;;2.47;;
1400;SDS011;46518;48.842;8.926;2023-03-16T13:55:05;3.03;;;2.63;;
1400;SDS011;46518;48.842;8.926;2023-03-16T13:57:41;3.55;;;2.50;;
1400;SDS011;46518;48.842;8.926;2023-03-16T14:00:13;3.88;;;2.20;;
1400;SDS011;46518;48.842;8.926;2023-03-16T14:02:46;2.85;;;2.35;;
1400;SDS011;46518;48.842;8.926;2023-03-16T14:05:20;2.72;;;2.53;;
1400;SDS011;46518;48.842;8.926;2023-03-16T14:07:52;3.13;;;2.20;;
1400;SDS011;46518;48.842;8.926;2023-03-16T14:10:21;2.88;;;2.58;;
1400;SDS011;46518;48.842;8.926;2023-03-16T14:12:53;2.33;;;2.13;;
1400;SDS011;46518;48.842;8.926;2023-03-16T14:15:24;2.35;;;2.15;;
1400;SDS011;46518;48.842;8.926;2023-03-16T14:17:54;2.92;;;2.15;;
1400;SDS011;46518;48.842;8.926;2023-03-16T14:20:39;2.20;;;2.08;;
1400;SDS011;46518;48.842;8.926;2023-03-16T14:23:17;2.60;;;2.40;;
1400;SDS011;46518;48.842;8.926;2023-03-16T14:25:48;2.17;;;1.75;;
1400;SDS011;46518;48.842;8.926;2023-03-16T14:28:20;2.38;;;2.17;;
1400;SDS011;46518;48.842;8.926;2023-03-16T14:31:00;3.67;;;1.90;;
1400;SDS011;46518;48.842;8.926;2023-03-16T14:33:30;1.65;;;1.42;;
1400;SDS011;46518;48.842;8.926;2023-03-16T14:36:08;3.85;;;1.75;;
1400;SDS011;46518;48.842;8.926;2023-03-16T14:38:39;2.42;;;1.90;;
1400;SDS011;46518;48.842;8.926;2023-03-16T14:41:15;6.30;;;2.05;;
1400;SDS011;46518;48.842;8.926;2023-03-16T14:43:48;2.60;;;2.10;;
1400;SDS011;46518;48.842;8.926;2023-03-16T14:46:21;2.20;;;1.70;;
1400;SDS011;46518;48.842;8.926;2023-03-16T14:49:01;2.20;;;1.63;;
1400;SDS011;46518;48.842;8.926;2023-03-16T14:51:35;2.97;;;2.00;;
1400;SDS011;46518;48.842;8.926;2023-03-16T14:54:09;2.45;;;1.65;;
1400;SDS011;46518;48.842;8.926;2023-03-16T14:56:39;2.17;;;1.67;;
1400;SDS011;46518;48.842;8.926;2023-03-16T14:59:08;2.38;;;1.95;;
1400;SDS011;46518;48.842;8.926;2023-03-16T15:01:36;2.20;;;1.80;;
1400;SDS011;46518;48.842;8.926;2023-03-16T15:04:05;2.85;;;2.10;;
1400;SDS011;46518;48.842;8.926;2023-03-16T15:06:34;3.05;;;2.40;;
1400;SDS011;46518;48.842;8.926;2023-03-16T15:09:03;2.83;;;2.10;;
1400;SDS011;46518;48.842;8.926;2023-03-16T15:11:32;2.75;;;2.17;;
1400;SDS011;46518;48.842;8.926;2023-03-16T15:14:00;2.20;;;2.00;;
1400;SDS011;46518;48.842;8.926;2023-03-16T15:16:40;1.55;;;1.45;;